Sintra Airport Sintra PT
ICAO: LPST
IATA:
Category: Medium
Scheduled Services: No

Elevation: 440 ft
TransAlt. 4000 ft.

Airport Communications:
APP:118.6
GND:122.1
TWR:119.85

LPST Zoom In..

Runways:

(A) RW 14 length 5906 ft width 131 ft
---- / hdg 139

(B) RW 32 length 5906 ft width 131 ft
---- / hdg 319

Location; LPST
Day. 14 / Time. 14.00 Zulu
* QNH: 1018
* Temperature: 22° c. 71.6°f.
* Wind from: 320° Speed 11 kn.
Dewpoint: 15° c.
Visibility: 10 km or more.
Clouds: Few 1800 ft.

LPST 141400Z 32011KT 9999 FEW018 22/15 Q1018


Wind From 320°
Speed 11 kn.

 
 
jpsmedia.com for Web Design worldairports.se 2018   terms of use